sensor_id;sensor_type;location;lat;lon;timestamp;P1;durP1;ratioP1;P2;durP2;ratioP2
3433;SDS011;1730;41.932;25.548;2024-02-15T00:01:00;9.90;;;8.80;;
3433;SDS011;1730;41.932;25.548;2024-02-15T00:03:25;9.77;;;8.60;;
3433;SDS011;1730;41.932;25.548;2024-02-15T00:05:51;8.77;;;7.83;;
3433;SDS011;1730;41.932;25.548;2024-02-15T00:08:17;9.10;;;8.07;;
3433;SDS011;1730;41.932;25.548;2024-02-15T00:10:44;9.87;;;8.87;;
3433;SDS011;1730;41.932;25.548;2024-02-15T00:13:11;9.90;;;8.90;;
3433;SDS011;1730;41.932;25.548;2024-02-15T00:15:37;10.93;;;9.67;;
3433;SDS011;1730;41.932;25.548;2024-02-15T00:18:03;10.60;;;9.03;;
3433;SDS011;1730;41.932;25.548;2024-02-15T00:20:29;10.70;;;9.40;;
3433;SDS011;1730;41.932;25.548;2024-02-15T00:22:54;10.83;;;9.20;;
3433;SDS011;1730;41.932;25.548;2024-02-15T00:25:21;11.17;;;8.40;;
3433;SDS011;1730;41.932;25.548;2024-02-15T00:27:47;12.53;;;8.97;;
3433;SDS011;1730;41.932;25.548;2024-02-15T00:30:12;10.17;;;8.97;;
3433;SDS011;1730;41.932;25.548;2024-02-15T00:32:38;11.03;;;8.73;;
3433;SDS011;1730;41.932;25.548;2024-02-15T00:35:04;10.50;;;9.50;;
3433;SDS011;1730;41.932;25.548;2024-02-15T00:37:34;12.70;;;9.53;;
3433;SDS011;1730;41.932;25.548;2024-02-15T00:40:00;10.43;;;9.20;;
3433;SDS011;1730;41.932;25.548;2024-02-15T00:42:26;9.67;;;8.77;;
3433;SDS011;1730;41.932;25.548;2024-02-15T00:44:52;10.27;;;8.60;;
3433;SDS011;1730;41.932;25.548;2024-02-15T00:47:17;12.40;;;9.80;;
3433;SDS011;1730;41.932;25.548;2024-02-15T00:49:45;13.07;;;8.57;;
3433;SDS011;1730;41.932;25.548;2024-02-15T00:52:10;11.33;;;8.53;;
3433;SDS011;1730;41.932;25.548;2024-02-15T00:54:36;10.17;;;8.87;;
3433;SDS011;1730;41.932;25.548;2024-02-15T00:57:01;11.13;;;9.80;;
3433;SDS011;1730;41.932;25.548;2024-02-15T00:59:26;17.50;;;13.80;;
3433;SDS011;1730;41.932;25.548;2024-02-15T01:01:52;18.50;;;13.80;;
3433;SDS011;1730;41.932;25.548;2024-02-15T01:04:18;15.10;;;11.30;;
3433;SDS011;1730;41.932;25.548;2024-02-15T01:06:44;12.50;;;10.47;;
3433;SDS011;1730;41.932;25.548;2024-02-15T01:09:10;19.97;;;14.23;;
3433;SDS011;1730;41.932;25.548;2024-02-15T01:11:36;12.30;;;11.00;;
3433;SDS011;1730;41.932;25.548;2024-02-15T01:14:02;10.23;;;8.80;;
3433;SDS011;1730;41.932;25.548;2024-02-15T01:16:28;11.40;;;10.20;;
3433;SDS011;1730;41.932;25.548;2024-02-15T01:18:54;15.10;;;11.87;;
3433;SDS011;1730;41.932;25.548;2024-02-15T01:21:20;12.27;;;9.50;;
3433;SDS011;1730;41.932;25.548;2024-02-15T01:23:47;10.80;;;9.03;;
3433;SDS011;1730;41.932;25.548;2024-02-15T01:26:13;12.10;;;9.00;;
3433;SDS011;1730;41.932;25.548;2024-02-15T01:28:39;11.00;;;9.10;;
3433;SDS011;1730;41.932;25.548;2024-02-15T01:31:08;10.37;;;9.03;;
3433;SDS011;1730;41.932;25.548;2024-02-15T01:33:36;10.47;;;9.40;;
3433;SDS011;1730;41.932;25.548;2024-02-15T01:36:02;13.60;;;9.73;;
3433;SDS011;1730;41.932;25.548;2024-02-15T01:38:28;11.07;;;9.30;;
3433;SDS011;1730;41.932;25.548;2024-02-15T01:40:53;10.10;;;9.10;;
3433;SDS011;1730;41.932;25.548;2024-02-15T01:43:19;10.30;;;9.30;;
3433;SDS011;1730;41.932;25.548;2024-02-15T01:45:44;11.23;;;8.40;;
3433;SDS011;1730;41.932;25.548;2024-02-15T01:48:12;9.87;;;8.97;;
3433;SDS011;1730;41.932;25.548;2024-02-15T01:50:39;9.03;;;8.13;;
3433;SDS011;1730;41.932;25.548;2024-02-15T01:53:07;8.47;;;7.77;;
3433;SDS011;1730;41.932;25.548;2024-02-15T01:55:35;10.20;;;9.03;;
3433;SDS011;1730;41.932;25.548;2024-02-15T01:58:03;9.20;;;7.60;;
3433;SDS011;1730;41.932;25.548;2024-02-15T02:00:28;9.00;;;8.20;;
3433;SDS011;1730;41.932;25.548;2024-02-15T02:02:55;8.33;;;7.53;;
3433;SDS011;1730;41.932;25.548;2024-02-15T02:05:26;10.07;;;8.73;;
3433;SDS011;1730;41.932;25.548;2024-02-15T02:07:53;9.10;;;8.20;;
3433;SDS011;1730;41.932;25.548;2024-02-15T02:10:19;9.60;;;8.13;;
3433;SDS011;1730;41.932;25.548;2024-02-15T02:12:46;9.50;;;8.60;;
3433;SDS011;1730;41.932;25.548;2024-02-15T02:15:12;9.93;;;8.97;;
3433;SDS011;1730;41.932;25.548;2024-02-15T02:17:37;10.40;;;8.73;;
3433;SDS011;1730;41.932;25.548;2024-02-15T02:20:05;10.60;;;9.60;;
3433;SDS011;1730;41.932;25.548;2024-02-15T02:22:33;11.30;;;7.63;;
3433;SDS011;1730;41.932;25.548;2024-02-15T02:25:06;8.97;;;8.10;;
3433;SDS011;1730;41.932;25.548;2024-02-15T02:27:33;8.40;;;7.80;;
3433;SDS011;1730;41.932;25.548;2024-02-15T02:29:59;7.77;;;7.10;;
3433;SDS011;1730;41.932;25.548;2024-02-15T02:32:25;9.23;;;8.30;;
3433;SDS011;1730;41.932;25.548;2024-02-15T02:34:52;8.30;;;7.60;;
3433;SDS011;1730;41.932;25.548;2024-02-15T02:37:25;8.33;;;7.53;;
3433;SDS011;1730;41.932;25.548;2024-02-15T02:39:51;9.67;;;8.67;;
3433;SDS011;1730;41.932;25.548;2024-02-15T02:42:17;11.97;;;8.43;;
3433;SDS011;1730;41.932;25.548;2024-02-15T02:44:42;9.13;;;8.23;;
3433;SDS011;1730;41.932;25.548;2024-02-15T02:47:07;9.40;;;8.47;;
3433;SDS011;1730;41.932;25.548;2024-02-15T02:49:36;10.00;;;8.70;;
3433;SDS011;1730;41.932;25.548;2024-02-15T02:52:02;10.13;;;9.13;;
3433;SDS011;1730;41.932;25.548;2024-02-15T02:54:28;12.80;;;9.23;;
3433;SDS011;1730;41.932;25.548;2024-02-15T02:56:54;10.33;;;9.40;;
3433;SDS011;1730;41.932;25.548;2024-02-15T02:59:20;9.77;;;8.87;;
3433;SDS011;1730;41.932;25.548;2024-02-15T03:01:46;10.90;;;9.10;;
3433;SDS011;1730;41.932;25.548;2024-02-15T03:04:12;13.40;;;9.00;;
3433;SDS011;1730;41.932;25.548;2024-02-15T03:06:42;9.53;;;8.53;;
3433;SDS011;1730;41.932;25.548;2024-02-15T03:09:08;9.37;;;8.53;;
3433;SDS011;1730;41.932;25.548;2024-02-15T03:11:35;9.37;;;7.90;;
3433;SDS011;1730;41.932;25.548;2024-02-15T03:14:01;9.40;;;8.47;;
3433;SDS011;1730;41.932;25.548;2024-02-15T03:16:32;9.70;;;8.50;;
3433;SDS011;1730;41.932;25.548;2024-02-15T03:18:58;11.90;;;8.63;;
3433;SDS011;1730;41.932;25.548;2024-02-15T03:21:27;14.90;;;8.63;;
3433;SDS011;1730;41.932;25.548;2024-02-15T03:23:53;10.00;;;8.43;;
3433;SDS011;1730;41.932;25.548;2024-02-15T03:26:21;9.87;;;8.97;;
3433;SDS011;1730;41.932;25.548;2024-02-15T03:28:55;11.50;;;9.60;;
3433;SDS011;1730;41.932;25.548;2024-02-15T03:31:20;9.90;;;8.90;;
3433;SDS011;1730;41.932;25.548;2024-02-15T03:33:46;10.30;;;9.30;;
3433;SDS011;1730;41.932;25.548;2024-02-15T03:36:15;10.13;;;9.13;;
3433;SDS011;1730;41.932;25.548;2024-02-15T03:38:43;10.00;;;8.37;;
3433;SDS011;1730;41.932;25.548;2024-02-15T03:41:10;10.50;;;9.50;;
3433;SDS011;1730;41.932;25.548;2024-02-15T03:43:35;9.10;;;8.30;;
3433;SDS011;1730;41.932;25.548;2024-02-15T03:46:01;9.97;;;8.97;;
3433;SDS011;1730;41.932;25.548;2024-02-15T03:48:26;10.43;;;9.20;;
3433;SDS011;1730;41.932;25.548;2024-02-15T03:50:52;9.73;;;8.83;;
3433;SDS011;1730;41.932;25.548;2024-02-15T03:53:18;9.60;;;8.67;;
3433;SDS011;1730;41.932;25.548;2024-02-15T03:55:43;11.00;;;8.93;;
3433;SDS011;1730;41.932;25.548;2024-02-15T03:58:09;10.00;;;9.13;;
3433;SDS011;1730;41.932;25.548;2024-02-15T04:00:34;9.70;;;8.70;;
3433;SDS011;1730;41.932;25.548;2024-02-15T04:03:00;11.23;;;9.33;;
3433;SDS011;1730;41.932;25.548;2024-02-15T04:05:26;11.07;;;9.30;;
3433;SDS011;1730;41.932;25.548;2024-02-15T04:07:51;9.63;;;8.73;;
3433;SDS011;1730;41.932;25.548;2024-02-15T04:10:18;11.37;;;9.63;;
3433;SDS011;1730;41.932;25.548;2024-02-15T04:12:44;9.83;;;8.97;;
3433;SDS011;1730;41.932;25.548;2024-02-15T04:15:09;9.60;;;8.70;;
3433;SDS011;1730;41.932;25.548;2024-02-15T04:17:41;8.70;;;7.93;;
3433;SDS011;1730;41.932;25.548;2024-02-15T04:20:07;10.97;;;9.90;;
3433;SDS011;1730;41.932;25.548;2024-02-15T04:22:34;11.80;;;8.80;;
3433;SDS011;1730;41.932;25.548;2024-02-15T04:25:06;11.60;;;9.50;;
3433;SDS011;1730;41.932;25.548;2024-02-15T04:27:34;10.37;;;8.50;;
3433;SDS011;1730;41.932;25.548;2024-02-15T04:30:00;9.70;;;8.80;;
3433;SDS011;1730;41.932;25.548;2024-02-15T04:32:27;11.60;;;9.40;;
3433;SDS011;1730;41.932;25.548;2024-02-15T04:34:54;10.73;;;9.80;;
3433;SDS011;1730;41.932;25.548;2024-02-15T04:37:19;13.50;;;11.07;;
3433;SDS011;1730;41.932;25.548;2024-02-15T04:39:45;12.13;;;8.90;;
3433;SDS011;1730;41.932;25.548;2024-02-15T04:42:12;10.00;;;8.73;;
3433;SDS011;1730;41.932;25.548;2024-02-15T04:44:40;10.23;;;9.07;;
3433;SDS011;1730;41.932;25.548;2024-02-15T04:47:06;10.03;;;9.07;;
3433;SDS011;1730;41.932;25.548;2024-02-15T04:49:32;9.63;;;8.73;;
3433;SDS011;1730;41.932;25.548;2024-02-15T04:51:58;10.73;;;9.50;;
3433;SDS011;1730;41.932;25.548;2024-02-15T04:54:23;14.30;;;9.37;;
3433;SDS011;1730;41.932;25.548;2024-02-15T04:56:49;11.20;;;9.13;;
3433;SDS011;1730;41.932;25.548;2024-02-15T04:59:19;11.03;;;9.20;;
3433;SDS011;1730;41.932;25.548;2024-02-15T05:01:51;9.53;;;8.60;;
3433;SDS011;1730;41.932;25.548;2024-02-15T05:04:21;10.70;;;9.10;;
3433;SDS011;1730;41.932;25.548;2024-02-15T05:06:47;10.50;;;9.37;;
3433;SDS011;1730;41.932;25.548;2024-02-15T05:09:13;11.77;;;10.23;;
3433;SDS011;1730;41.932;25.548;2024-02-15T05:11:39;11.57;;;10.10;;
3433;SDS011;1730;41.932;25.548;2024-02-15T05:14:06;14.37;;;10.87;;
3433;SDS011;1730;41.932;25.548;2024-02-15T05:16:33;11.07;;;9.93;;
3433;SDS011;1730;41.932;25.548;2024-02-15T05:18:59;23.23;;;11.47;;
3433;SDS011;1730;41.932;25.548;2024-02-15T05:21:25;11.80;;;10.60;;
3433;SDS011;1730;41.932;25.548;2024-02-15T05:23:51;14.00;;;9.33;;
3433;SDS011;1730;41.932;25.548;2024-02-15T05:26:18;13.50;;;10.33;;
3433;SDS011;1730;41.932;25.548;2024-02-15T05:28:51;12.20;;;10.50;;
3433;SDS011;1730;41.932;25.548;2024-02-15T05:31:17;14.33;;;11.90;;
3433;SDS011;1730;41.932;25.548;2024-02-15T05:33:48;12.00;;;10.70;;
3433;SDS011;1730;41.932;25.548;2024-02-15T05:36:19;13.40;;;10.97;;
3433;SDS011;1730;41.932;25.548;2024-02-15T05:38:49;15.93;;;11.83;;
3433;SDS011;1730;41.932;25.548;2024-02-15T05:41:16;14.40;;;11.53;;
3433;SDS011;1730;41.932;25.548;2024-02-15T05:43:42;16.53;;;12.60;;
3433;SDS011;1730;41.932;25.548;2024-02-15T05:46:08;11.40;;;9.77;;
3433;SDS011;1730;41.932;25.548;2024-02-15T05:48:35;12.20;;;10.60;;
3433;SDS011;1730;41.932;25.548;2024-02-15T05:51:05;16.67;;;11.63;;
3433;SDS011;1730;41.932;25.548;2024-02-15T05:53:34;19.10;;;12.27;;
3433;SDS011;1730;41.932;25.548;2024-02-15T05:56:03;15.63;;;11.40;;
3433;SDS011;1730;41.932;25.548;2024-02-15T05:58:34;14.50;;;11.50;;
3433;SDS011;1730;41.932;25.548;2024-02-15T06:01:03;16.47;;;11.03;;
3433;SDS011;1730;41.932;25.548;2024-02-15T06:03:32;16.93;;;11.87;;
3433;SDS011;1730;41.932;25.548;2024-02-15T06:06:01;15.47;;;12.10;;
3433;SDS011;1730;41.932;25.548;2024-02-15T06:08:31;18.27;;;13.57;;
3433;SDS011;1730;41.932;25.548;2024-02-15T06:10:57;14.87;;;11.90;;
3433;SDS011;1730;41.932;25.548;2024-02-15T06:13:23;12.30;;;11.00;;
3433;SDS011;1730;41.932;25.548;2024-02-15T06:15:50;11.80;;;10.60;;
3433;SDS011;1730;41.932;25.548;2024-02-15T06:18:19;11.77;;;10.67;;
3433;SDS011;1730;41.932;25.548;2024-02-15T06:20:50;12.70;;;10.87;;
3433;SDS011;1730;41.932;25.548;2024-02-15T06:23:16;13.70;;;12.20;;
3433;SDS011;1730;41.932;25.548;2024-02-15T06:25:42;20.53;;;13.07;;
3433;SDS011;1730;41.932;25.548;2024-02-15T06:28:08;14.47;;;11.70;;
3433;SDS011;1730;41.932;25.548;2024-02-15T06:30:53;19.90;;;13.50;;
3433;SDS011;1730;41.932;25.548;2024-02-15T06:33:36;20.80;;;14.33;;
3433;SDS011;1730;41.932;25.548;2024-02-15T06:36:20;16.67;;;10.93;;
3433;SDS011;1730;41.932;25.548;2024-02-15T06:39:04;14.10;;;12.50;;
3433;SDS011;1730;41.932;25.548;2024-02-15T06:41:48;16.03;;;11.30;;
3433;SDS011;1730;41.932;25.548;2024-02-15T06:44:15;10.80;;;9.70;;
3433;SDS011;1730;41.932;25.548;2024-02-15T06:46:40;14.10;;;10.70;;
3433;SDS011;1730;41.932;25.548;2024-02-15T06:49:06;14.83;;;11.03;;
3433;SDS011;1730;41.932;25.548;2024-02-15T06:51:32;15.37;;;10.93;;
3433;SDS011;1730;41.932;25.548;2024-02-15T06:53:57;10.53;;;9.43;;
3433;SDS011;1730;41.932;25.548;2024-02-15T06:56:23;13.47;;;9.63;;
3433;SDS011;1730;41.932;25.548;2024-02-15T06:58:50;14.50;;;11.60;;
3433;SDS011;1730;41.932;25.548;2024-02-15T07:01:15;12.37;;;11.10;;
3433;SDS011;1730;41.932;25.548;2024-02-15T07:03:44;17.00;;;10.73;;
3433;SDS011;1730;41.932;25.548;2024-02-15T07:06:12;18.40;;;9.67;;
3433;SDS011;1730;41.932;25.548;2024-02-15T07:08:39;15.70;;;11.47;;
3433;SDS011;1730;41.932;25.548;2024-02-15T07:11:08;12.10;;;10.90;;
3433;SDS011;1730;41.932;25.548;2024-02-15T07:13:35;14.10;;;11.70;;
3433;SDS011;1730;41.932;25.548;2024-02-15T07:16:02;14.50;;;10.10;;
3433;SDS011;1730;41.932;25.548;2024-02-15T07:18:31;15.03;;;10.70;;
3433;SDS011;1730;41.932;25.548;2024-02-15T07:20:57;11.13;;;9.90;;
3433;SDS011;1730;41.932;25.548;2024-02-15T07:23:24;13.17;;;10.67;;
3433;SDS011;1730;41.932;25.548;2024-02-15T07:25:50;17.37;;;11.23;;
3433;SDS011;1730;41.932;25.548;2024-02-15T07:28:19;12.20;;;11.00;;
3433;SDS011;1730;41.932;25.548;2024-02-15T07:30:46;11.13;;;10.13;;
3433;SDS011;1730;41.932;25.548;2024-02-15T07:33:14;13.77;;;10.37;;
3433;SDS011;1730;41.932;25.548;2024-02-15T07:35:43;12.70;;;9.67;;
3433;SDS011;1730;41.932;25.548;2024-02-15T07:38:09;10.83;;;9.67;;
3433;SDS011;1730;41.932;25.548;2024-02-15T07:40:35;12.27;;;10.10;;
3433;SDS011;1730;41.932;25.548;2024-02-15T07:43:00;13.50;;;10.27;;
3433;SDS011;1730;41.932;25.548;2024-02-15T07:45:28;10.83;;;9.73;;
3433;SDS011;1730;41.932;25.548;2024-02-15T07:47:54;10.53;;;9.47;;
3433;SDS011;1730;41.932;25.548;2024-02-15T07:50:20;12.43;;;10.80;;
3433;SDS011;1730;41.932;25.548;2024-02-15T07:52:48;11.90;;;10.00;;
3433;SDS011;1730;41.932;25.548;2024-02-15T07:55:14;11.83;;;10.63;;
3433;SDS011;1730;41.932;25.548;2024-02-15T07:57:40;13.80;;;9.93;;
3433;SDS011;1730;41.932;25.548;2024-02-15T08:00:06;15.97;;;9.60;;
3433;SDS011;1730;41.932;25.548;2024-02-15T08:02:36;11.10;;;10.00;;
3433;SDS011;1730;41.932;25.548;2024-02-15T08:05:05;12.43;;;10.70;;
3433;SDS011;1730;41.932;25.548;2024-02-15T08:07:36;11.47;;;10.00;;
3433;SDS011;1730;41.932;25.548;2024-02-15T08:10:03;16.13;;;10.70;;
3433;SDS011;1730;41.932;25.548;2024-02-15T08:12:29;13.10;;;11.30;;
3433;SDS011;1730;41.932;25.548;2024-02-15T08:14:55;10.40;;;9.40;;
3433;SDS011;1730;41.932;25.548;2024-02-15T08:17:21;11.83;;;9.90;;
3433;SDS011;1730;41.932;25.548;2024-02-15T08:19:46;16.93;;;12.00;;
3433;SDS011;1730;41.932;25.548;2024-02-15T08:22:12;12.73;;;11.43;;
3433;SDS011;1730;41.932;25.548;2024-02-15T08:24:37;24.00;;;17.10;;
3433;SDS011;1730;41.932;25.548;2024-02-15T08:27:03;17.03;;;10.77;;
3433;SDS011;1730;41.932;25.548;2024-02-15T08:29:29;15.37;;;11.20;;
3433;SDS011;1730;41.932;25.548;2024-02-15T08:31:55;12.17;;;9.43;;
3433;SDS011;1730;41.932;25.548;2024-02-15T08:34:20;10.80;;;9.70;;
3433;SDS011;1730;41.932;25.548;2024-02-15T08:36:46;11.67;;;10.17;;
3433;SDS011;1730;41.932;25.548;2024-02-15T08:39:13;12.40;;;9.20;;
3433;SDS011;1730;41.932;25.548;2024-02-15T08:41:41;11.47;;;9.90;;
3433;SDS011;1730;41.932;25.548;2024-02-15T08:44:07;10.20;;;8.90;;
3433;SDS011;1730;41.932;25.548;2024-02-15T08:46:36;10.33;;;9.43;;
3433;SDS011;1730;41.932;25.548;2024-02-15T08:49:02;11.07;;;9.90;;
3433;SDS011;1730;41.932;25.548;2024-02-15T08:51:28;10.00;;;9.10;;
3433;SDS011;1730;41.932;25.548;2024-02-15T08:53:55;9.30;;;8.20;;
3433;SDS011;1730;41.932;25.548;2024-02-15T08:56:21;10.63;;;8.57;;
3433;SDS011;1730;41.932;25.548;2024-02-15T08:58:48;11.10;;;9.33;;
3433;SDS011;1730;41.932;25.548;2024-02-15T09:01:14;11.70;;;9.53;;
3433;SDS011;1730;41.932;25.548;2024-02-15T09:03:39;10.83;;;8.63;;
3433;SDS011;1730;41.932;25.548;2024-02-15T09:06:05;10.13;;;8.70;;
3433;SDS011;1730;41.932;25.548;2024-02-15T09:08:32;10.50;;;9.37;;
3433;SDS011;1730;41.932;25.548;2024-02-15T09:10:58;13.83;;;9.70;;
3433;SDS011;1730;41.932;25.548;2024-02-15T09:13:24;10.73;;;9.27;;
3433;SDS011;1730;41.932;25.548;2024-02-15T09:15:50;8.27;;;7.57;;
3433;SDS011;1730;41.932;25.548;2024-02-15T09:18:16;13.47;;;9.10;;
3433;SDS011;1730;41.932;25.548;2024-02-15T09:20:43;11.87;;;9.30;;
3433;SDS011;1730;41.932;25.548;2024-02-15T09:23:11;14.77;;;9.93;;
3433;SDS011;1730;41.932;25.548;2024-02-15T09:25:40;10.63;;;8.90;;
3433;SDS011;1730;41.932;25.548;2024-02-15T09:28:09;11.27;;;9.10;;
3433;SDS011;1730;41.932;25.548;2024-02-15T09:30:35;14.00;;;10.47;;
3433;SDS011;1730;41.932;25.548;2024-02-15T09:33:01;9.67;;;8.03;;
3433;SDS011;1730;41.932;25.548;2024-02-15T09:35:30;8.13;;;7.43;;
3433;SDS011;1730;41.932;25.548;2024-02-15T09:37:57;15.73;;;8.30;;
3433;SDS011;1730;41.932;25.548;2024-02-15T09:40:22;7.83;;;7.20;;
3433;SDS011;1730;41.932;25.548;2024-02-15T09:42:54;9.33;;;8.03;;
3433;SDS011;1730;41.932;25.548;2024-02-15T09:45:19;11.47;;;10.30;;
3433;SDS011;1730;41.932;25.548;2024-02-15T09:47:46;9.00;;;8.10;;
3433;SDS011;1730;41.932;25.548;2024-02-15T09:50:15;10.27;;;9.10;;
3433;SDS011;1730;41.932;25.548;2024-02-15T09:52:48;10.27;;;8.97;;
3433;SDS011;1730;41.932;25.548;2024-02-15T09:55:15;8.77;;;7.90;;
3433;SDS011;1730;41.932;25.548;2024-02-15T09:57:41;10.57;;;8.70;;
3433;SDS011;1730;41.932;25.548;2024-02-15T10:00:08;13.63;;;9.00;;
3433;SDS011;1730;41.932;25.548;2024-02-15T10:02:39;10.20;;;8.10;;
3433;SDS011;1730;41.932;25.548;2024-02-15T10:05:08;9.17;;;8.20;;
3433;SDS011;1730;41.932;25.548;2024-02-15T10:07:40;8.03;;;7.37;;
3433;SDS011;1730;41.932;25.548;2024-02-15T10:12:42;8.97;;;8.10;;
3433;SDS011;1730;41.932;25.548;2024-02-15T10:15:34;10.30;;;8.87;;
3433;SDS011;1730;41.932;25.548;2024-02-15T10:18:09;9.40;;;8.53;;
3433;SDS011;1730;41.932;25.548;2024-02-15T10:20:41;9.70;;;8.70;;
3433;SDS011;1730;41.932;25.548;2024-02-15T10:23:13;10.90;;;8.40;;
3433;SDS011;1730;41.932;25.548;2024-02-15T10:25:43;9.33;;;8.23;;
3433;SDS011;1730;41.932;25.548;2024-02-15T10:28:12;8.93;;;8.13;;
3433;SDS011;1730;41.932;25.548;2024-02-15T10:30:43;10.47;;;8.40;;
3433;SDS011;1730;41.932;25.548;2024-02-15T10:33:20;9.60;;;8.30;;
3433;SDS011;1730;41.932;25.548;2024-02-15T10:36:09;9.13;;;8.23;;
3433;SDS011;1730;41.932;25.548;2024-02-15T10:38:39;9.30;;;8.10;;
3433;SDS011;1730;41.932;25.548;2024-02-15T10:41:05;9.17;;;8.27;;
3433;SDS011;1730;41.932;25.548;2024-02-15T10:43:35;12.10;;;8.20;;
3433;SDS011;1730;41.932;25.548;2024-02-15T10:46:05;8.77;;;7.87;;
3433;SDS011;1730;41.932;25.548;2024-02-15T10:48:35;12.10;;;9.07;;
3433;SDS011;1730;41.932;25.548;2024-02-15T10:51:03;11.37;;;9.13;;
3433;SDS011;1730;41.932;25.548;2024-02-15T10:53:32;9.30;;;8.30;;
3433;SDS011;1730;41.932;25.548;2024-02-15T10:58:44;9.90;;;8.93;;
3433;SDS011;1730;41.932;25.548;2024-02-15T11:01:12;8.50;;;7.70;;
3433;SDS011;1730;41.932;25.548;2024-02-15T11:03:58;8.87;;;7.90;;
3433;SDS011;1730;41.932;25.548;2024-02-15T11:06:33;10.47;;;8.70;;
3433;SDS011;1730;41.932;25.548;2024-02-15T11:09:04;10.03;;;7.83;;
3433;SDS011;1730;41.932;25.548;2024-02-15T11:11:31;9.23;;;7.63;;
3433;SDS011;1730;41.932;25.548;2024-02-15T11:16:48;7.63;;;6.93;;
3433;SDS011;1730;41.932;25.548;2024-02-15T11:22:10;9.33;;;7.37;;
3433;SDS011;1730;41.932;25.548;2024-02-15T11:24:49;8.97;;;7.63;;
3433;SDS011;1730;41.932;25.548;2024-02-15T11:27:29;10.40;;;8.53;;
3433;SDS011;1730;41.932;25.548;2024-02-15T11:30:00;8.70;;;7.80;;
3433;SDS011;1730;41.932;25.548;2024-02-15T11:32:47;8.93;;;8.13;;
3433;SDS011;1730;41.932;25.548;2024-02-15T11:35:22;9.50;;;8.70;;
3433;SDS011;1730;41.932;25.548;2024-02-15T11:37:49;12.20;;;8.43;;
3433;SDS011;1730;41.932;25.548;2024-02-15T11:40:19;14.70;;;8.53;;
3433;SDS011;1730;41.932;25.548;2024-02-15T11:42:51;13.17;;;9.20;;
3433;SDS011;1730;41.932;25.548;2024-02-15T11:45:28;12.03;;;9.40;;
3433;SDS011;1730;41.932;25.548;2024-02-15T11:48:09;11.50;;;8.20;;
3433;SDS011;1730;41.932;25.548;2024-02-15T11:50:36;8.30;;;7.60;;
3433;SDS011;1730;41.932;25.548;2024-02-15T11:53:03;8.60;;;7.80;;
3433;SDS011;1730;41.932;25.548;2024-02-15T11:55:34;7.60;;;6.90;;
3433;SDS011;1730;41.932;25.548;2024-02-15T11:58:01;8.60;;;7.80;;
3433;SDS011;1730;41.932;25.548;2024-02-15T12:00:43;8.53;;;7.00;;
3433;SDS011;1730;41.932;25.548;2024-02-15T12:03:28;13.17;;;8.10;;
3433;SDS011;1730;41.932;25.548;2024-02-15T12:06:12;7.27;;;6.67;;
3433;SDS011;1730;41.932;25.548;2024-02-15T12:09:01;9.23;;;6.87;;
3433;SDS011;1730;41.932;25.548;2024-02-15T12:11:45;9.10;;;6.63;;
3433;SDS011;1730;41.932;25.548;2024-02-15T12:14:30;9.83;;;6.90;;
3433;SDS011;1730;41.932;25.548;2024-02-15T12:17:14;9.27;;;6.77;;
3433;SDS011;1730;41.932;25.548;2024-02-15T12:19:59;6.60;;;6.10;;
3433;SDS011;1730;41.932;25.548;2024-02-15T12:22:44;8.17;;;7.10;;
3433;SDS011;1730;41.932;25.548;2024-02-15T12:25:15;7.37;;;6.77;;
3433;SDS011;1730;41.932;25.548;2024-02-15T12:27:42;7.50;;;6.87;;
3433;SDS011;1730;41.932;25.548;2024-02-15T12:32:40;7.17;;;6.57;;
3433;SDS011;1730;41.932;25.548;2024-02-15T12:35:09;8.70;;;7.67;;
3433;SDS011;1730;41.932;25.548;2024-02-15T12:37:45;7.53;;;6.93;;
3433;SDS011;1730;41.932;25.548;2024-02-15T12:40:12;6.53;;;5.93;;
3433;SDS011;1730;41.932;25.548;2024-02-15T12:42:43;7.50;;;6.80;;
3433;SDS011;1730;41.932;25.548;2024-02-15T12:45:19;8.73;;;6.10;;
3433;SDS011;1730;41.932;25.548;2024-02-15T12:47:50;7.97;;;5.93;;
3433;SDS011;1730;41.932;25.548;2024-02-15T12:50:17;7.53;;;5.70;;
3433;SDS011;1730;41.932;25.548;2024-02-15T12:52:54;9.70;;;7.90;;
3433;SDS011;1730;41.932;25.548;2024-02-15T12:55:26;7.17;;;5.83;;
3433;SDS011;1730;41.932;25.548;2024-02-15T13:00:58;6.70;;;6.20;;
3433;SDS011;1730;41.932;25.548;2024-02-15T13:03:29;8.73;;;6.20;;
3433;SDS011;1730;41.932;25.548;2024-02-15T13:05:55;6.20;;;5.70;;
3433;SDS011;1730;41.932;25.548;2024-02-15T13:08:22;6.33;;;5.73;;
3433;SDS011;1730;41.932;25.548;2024-02-15T13:10:47;6.10;;;5.50;;
3433;SDS011;1730;41.932;25.548;2024-02-15T13:13:16;6.37;;;5.93;;
3433;SDS011;1730;41.932;25.548;2024-02-15T13:15:42;7.63;;;6.93;;
3433;SDS011;1730;41.932;25.548;2024-02-15T13:18:07;7.73;;;5.87;;
3433;SDS011;1730;41.932;25.548;2024-02-15T13:20:36;6.33;;;5.73;;
3433;SDS011;1730;41.932;25.548;2024-02-15T13:23:03;7.33;;;6.27;;
3433;SDS011;1730;41.932;25.548;2024-02-15T13:25:47;5.93;;;5.53;;
3433;SDS011;1730;41.932;25.548;2024-02-15T13:28:14;5.80;;;5.30;;
3433;SDS011;1730;41.932;25.548;2024-02-15T13:30:40;6.33;;;5.90;;
3433;SDS011;1730;41.932;25.548;2024-02-15T13:33:08;6.37;;;5.77;;
3433;SDS011;1730;41.932;25.548;2024-02-15T13:35:34;8.20;;;6.10;;
3433;SDS011;1730;41.932;25.548;2024-02-15T13:38:01;6.40;;;5.83;;
3433;SDS011;1730;41.932;25.548;2024-02-15T13:40:28;6.83;;;6.20;;
3433;SDS011;1730;41.932;25.548;2024-02-15T13:43:00;5.43;;;5.03;;
3433;SDS011;1730;41.932;25.548;2024-02-15T13:48:05;7.00;;;6.40;;
3433;SDS011;1730;41.932;25.548;2024-02-15T13:50:34;6.83;;;6.23;;
3433;SDS011;1730;41.932;25.548;2024-02-15T13:53:01;10.50;;;7.67;;
3433;SDS011;1730;41.932;25.548;2024-02-15T13:55:27;9.73;;;7.47;;
3433;SDS011;1730;41.932;25.548;2024-02-15T13:57:55;8.10;;;7.30;;
3433;SDS011;1730;41.932;25.548;2024-02-15T14:00:21;13.23;;;9.27;;
3433;SDS011;1730;41.932;25.548;2024-02-15T14:02:51;15.40;;;9.90;;
3433;SDS011;1730;41.932;25.548;2024-02-15T14:05:18;14.90;;;11.13;;
3433;SDS011;1730;41.932;25.548;2024-02-15T14:07:49;8.27;;;7.40;;
3433;SDS011;1730;41.932;25.548;2024-02-15T14:10:15;5.83;;;5.43;;
3433;SDS011;1730;41.932;25.548;2024-02-15T14:12:46;10.40;;;5.20;;
3433;SDS011;1730;41.932;25.548;2024-02-15T14:15:18;6.20;;;5.70;;
3433;SDS011;1730;41.932;25.548;2024-02-15T14:17:44;6.20;;;5.60;;
3433;SDS011;1730;41.932;25.548;2024-02-15T14:20:10;7.53;;;6.80;;
3433;SDS011;1730;41.932;25.548;2024-02-15T14:22:50;6.47;;;5.93;;
3433;SDS011;1730;41.932;25.548;2024-02-15T14:25:25;7.10;;;6.20;;
3433;SDS011;1730;41.932;25.548;2024-02-15T14:27:53;11.93;;;6.47;;
3433;SDS011;1730;41.932;25.548;2024-02-15T14:30:19;6.00;;;5.40;;
3433;SDS011;1730;41.932;25.548;2024-02-15T14:33:03;7.30;;;6.53;;
3433;SDS011;1730;41.932;25.548;2024-02-15T14:35:32;6.10;;;5.57;;
3433;SDS011;1730;41.932;25.548;2024-02-15T14:38:07;6.00;;;5.60;;
3433;SDS011;1730;41.932;25.548;2024-02-15T14:40:36;7.00;;;5.90;;
3433;SDS011;1730;41.932;25.548;2024-02-15T14:43:09;6.80;;;6.00;;
3433;SDS011;1730;41.932;25.548;2024-02-15T14:45:39;8.23;;;6.93;;
3433;SDS011;1730;41.932;25.548;2024-02-15T14:48:06;12.23;;;8.30;;
3433;SDS011;1730;41.932;25.548;2024-02-15T14:50:36;16.43;;;8.50;;
3433;SDS011;1730;41.932;25.548;2024-02-15T14:53:03;7.33;;;6.30;;
3433;SDS011;1730;41.932;25.548;2024-02-15T14:55:29;7.33;;;6.63;;
3433;SDS011;1730;41.932;25.548;2024-02-15T14:57:56;8.00;;;6.27;;
3433;SDS011;1730;41.932;25.548;2024-02-15T15:00:22;7.40;;;6.70;;
3433;SDS011;1730;41.932;25.548;2024-02-15T15:02:49;6.30;;;5.80;;
3433;SDS011;1730;41.932;25.548;2024-02-15T15:05:15;6.83;;;5.70;;
3433;SDS011;1730;41.932;25.548;2024-02-15T15:07:59;6.63;;;6.00;;
3433;SDS011;1730;41.932;25.548;2024-02-15T15:10:47;6.33;;;5.80;;
3433;SDS011;1730;41.932;25.548;2024-02-15T15:13:32;7.30;;;4.60;;
3433;SDS011;1730;41.932;25.548;2024-02-15T15:16:00;6.10;;;4.90;;
3433;SDS011;1730;41.932;25.548;2024-02-15T15:18:27;14.90;;;7.90;;